65.8°F
Current conditions from King Hill
Updated every 5 minutes
 
  Thursday August 28, 2014

Station Historical Data
Daily Summary for May 21, 2012 Units:  Both    English   Metric
« Previous Day
Next Day »
Daily Weekly Monthly Yearly Custom
  High: Low: Average:
Temperature: 79.8 °F /  26.6 °C 57.1 °F /  13.9 °C 69.1 °F /  20.6 °C
Dew Point: 59.9 °F /  15.5 °C 37.7 °F /  3.2 °C 52.6 °F /  11.4 °C
Humidity: 84% 23% 59%
Wind Speed: 6.0mph /  9.7km/h - 2.5mph /  4km/h
Wind Gust: 16.0mph /  25.7km/h - -
Wind- - SSW
Pressure: 30.15 in /  1020.9 hPa 29.95 in /  1014.1 hPa -
Precipitation: 0.00 in /  0 mm    
Historical Graphs
 
 
Tabular Data for May 21, 2012
Time Temperature Dew Point Pressure Wind Wind Speed Wind Gust Humidity Daily Rainfall
00:04 64.1 °F /  17.8 °C 53.3 °F /  11.8 °C 30.14in /  1020.5hPa Calm   3.0mph /  4.8km/h 68% 0.00in /  0mm
00:09 63.9 °F /  17.7 °C 53.5 °F /  11.9 °C 30.14in /  1020.5hPa SSW 1.0mph /  1.6km/h 4.0mph /  6.4km/h 69% 0.00in /  0mm
00:14 63.6 °F /  17.6 °C 53.3 °F /  11.8 °C 30.14in /  1020.5hPa Calm   4.0mph /  6.4km/h 69% 0.00in /  0mm
00:19 63.3 °F /  17.4 °C 53.4 °F /  11.9 °C 30.14in /  1020.5hPa Calm   1.0mph /  1.6km/h 70% 0.00in /  0mm
00:25 63.2 °F /  17.3 °C 53.3 °F /  11.8 °C 30.14in /  1020.5hPa Calm   1.0mph /  1.6km/h 70% 0.00in /  0mm
00:35 62.7 °F /  17.1 °C 53.2 °F /  11.8 °C 30.14in /  1020.5hPa Calm   1.0mph /  1.6km/h 71% 0.00in /  0mm
00:44 62.1 °F /  16.7 °C 53.0 °F /  11.7 °C 30.14in /  1020.5hPa Calm   3.0mph /  4.8km/h 72% 0.00in /  0mm
00:49 62.1 °F /  16.7 °C 53.0 °F /  11.7 °C 30.14in /  1020.5hPa Calm   3.0mph /  4.8km/h 72% 0.00in /  0mm
00:54 62.0 °F /  16.7 °C 52.9 °F /  11.6 °C 30.14in /  1020.5hPa Calm     72% 0.00in /  0mm
00:59 62.0 °F /  16.7 °C 52.9 °F /  11.6 °C 30.14in /  1020.5hPa Calm   1.0mph /  1.6km/h 72% 0.00in /  0mm
01:04 61.9 °F /  16.6 °C 52.8 °F /  11.6 °C 30.14in /  1020.5hPa SSW 1.0mph /  1.6km/h 3.0mph /  4.8km/h 72% 0.00in /  0mm
01:09 61.9 °F /  16.6 °C 52.8 °F /  11.6 °C 30.14in /  1020.5hPa Calm   3.0mph /  4.8km/h 72% 0.00in /  0mm
01:14 61.8 °F /  16.6 °C 53.1 °F /  11.7 °C 30.14in /  1020.5hPa Calm   1.0mph /  1.6km/h 73% 0.00in /  0mm
01:19 61.8 °F /  16.6 °C 52.7 °F /  11.5 °C 30.14in /  1020.5hPa Calm   1.0mph /  1.6km/h 72% 0.00in /  0mm
01:25 62.2 °F /  16.8 °C 53.4 °F /  11.9 °C 30.14in /  1020.5hPa Calm   1.0mph /  1.6km/h 73% 0.00in /  0mm
01:34 62.3 °F /  16.8 °C 53.2 °F /  11.8 °C 30.14in /  1020.5hPa Calm     72% 0.00in /  0mm
01:39 62.1 °F /  16.7 °C 53.0 °F /  11.7 °C 30.14in /  1020.5hPa Calm     72% 0.00in /  0mm
01:44 61.7 °F /  16.5 °C 53.0 °F /  11.7 °C 30.14in /  1020.5hPa Calm     73% 0.00in /  0mm
01:49 61.8 °F /  16.6 °C 53.1 °F /  11.7 °C 30.14in /  1020.5hPa Calm     73% 0.00in /  0mm
01:54 62.0 °F /  16.7 °C 52.9 °F /  11.6 °C 30.14in /  1020.5hPa Calm     72% 0.00in /  0mm
01:59 62.2 °F /  16.8 °C 53.4 °F /  11.9 °C 30.14in /  1020.5hPa Calm     73% 0.00in /  0mm
02:04 61.9 °F /  16.6 °C 53.2 °F /  11.8 °C 30.14in /  1020.5hPa Calm     73% 0.00in /  0mm
02:09 61.3 °F /  16.3 °C 53.0 °F /  11.7 °C 30.14in /  1020.5hPa Calm     74% 0.00in /  0mm
02:19 60.6 °F /  15.9 °C 53.0 °F /  11.7 °C 30.14in /  1020.5hPa Calm     76% 0.00in /  0mm
02:25 60.7 °F /  15.9 °C 53.1 °F /  11.7 °C 30.14in /  1020.5hPa Calm     76% 0.00in /  0mm
02:34 61.1 °F /  16.2 °C 53.1 °F /  11.7 °C 30.14in /  1020.5hPa Calm   1.0mph /  1.6km/h 75% 0.00in /  0mm
02:40 61.4 °F /  16.3 °C 52.7 °F /  11.5 °C 30.14in /  1020.5hPa Calm   3.0mph /  4.8km/h 73% 0.00in /  0mm
02:49 61.9 °F /  16.6 °C 53.2 °F /  11.8 °C 30.14in /  1020.5hPa Calm   7.0mph /  11.3km/h 73% 0.00in /  0mm
02:54 61.8 °F /  16.6 °C 53.1 °F /  11.7 °C 30.14in /  1020.5hPa Calm     73% 0.00in /  0mm
02:59 61.7 °F /  16.5 °C 53.0 °F /  11.7 °C 30.14in /  1020.5hPa Calm   1.0mph /  1.6km/h 73% 0.00in /  0mm
03:04 61.5 °F /  16.4 °C 52.8 °F /  11.6 °C 30.14in /  1020.5hPa Calm   1.0mph /  1.6km/h 73% 0.00in /  0mm
03:09 61.3 °F /  16.3 °C 52.6 °F /  11.4 °C 30.14in /  1020.5hPa Calm   1.0mph /  1.6km/h 73% 0.00in /  0mm
03:14 61.0 °F /  16.1 °C 52.7 °F /  11.5 °C 30.14in /  1020.5hPa Calm   1.0mph /  1.6km/h 74% 0.00in /  0mm
03:19 60.9 °F /  16.1 °C 52.6 °F /  11.4 °C 30.14in /  1020.5hPa Calm   3.0mph /  4.8km/h 74% 0.00in /  0mm
03:24 60.9 °F /  16.1 °C 52.6 °F /  11.4 °C 30.14in /  1020.5hPa Calm   3.0mph /  4.8km/h 74% 0.00in /  0mm
03:29 60.7 °F /  15.9 °C 52.4 °F /  11.3 °C 30.14in /  1020.5hPa Calm     74% 0.00in /  0mm
03:34 60.5 °F /  15.8 °C 52.5 °F /  11.4 °C 30.14in /  1020.5hPa Calm     75% 0.00in /  0mm
03:39 60.2 °F /  15.7 °C 52.3 °F /  11.3 °C 30.15in /  1020.9hPa Calm     75% 0.00in /  0mm
03:45 59.9 °F /  15.5 °C 52.0 °F /  11.1 °C 30.15in /  1020.9hPa Calm     75% 0.00in /  0mm
03:54 59.5 °F /  15.3 °C 51.6 °F /  10.9 °C 30.15in /  1020.9hPa Calm   1.0mph /  1.6km/h 75% 0.00in /  0mm
03:59 59.5 °F /  15.3 °C 51.9 °F /  11.1 °C 30.15in /  1020.9hPa Calm     76% 0.00in /  0mm
04:04 59.6 °F /  15.3 °C 52.0 °F /  11.1 °C 30.14in /  1020.5hPa Calm   1.0mph /  1.6km/h 76% 0.00in /  0mm
04:09 59.8 °F /  15.4 °C 52.2 °F /  11.2 °C 30.15in /  1020.9hPa Calm   1.0mph /  1.6km/h 76% 0.00in /  0mm
04:14 59.5 °F /  15.3 °C 51.9 °F /  11.1 °C 30.15in /  1020.9hPa Calm     76% 0.00in /  0mm
04:19 59.0 °F /  15 °C 51.8 °F /  11 °C 30.15in /  1020.9hPa Calm     77% 0.00in /  0mm
04:25 58.3 °F /  14.6 °C 51.1 °F /  10.6 °C 30.15in /  1020.9hPa Calm     77% 0.00in /  0mm
04:30 58.1 °F /  14.5 °C 50.9 °F /  10.5 °C 30.15in /  1020.9hPa Calm     77% 0.00in /  0mm
04:39 57.8 °F /  14.3 °C 50.6 °F /  10.3 °C 30.14in /  1020.5hPa Calm     77% 0.00in /  0mm
04:44 58.5 °F /  14.7 °C 51.0 °F /  10.6 °C 30.14in /  1020.5hPa Calm     76% 0.00in /  0mm
04:49 58.5 °F /  14.7 °C 51.0 °F /  10.6 °C 30.15in /  1020.9hPa Calm     76% 0.00in /  0mm
04:54 58.0 °F /  14.4 °C 50.8 °F /  10.4 °C 30.15in /  1020.9hPa Calm     77% 0.00in /  0mm
04:59 57.5 °F /  14.2 °C 50.7 °F /  10.4 °C 30.15in /  1020.9hPa Calm     78% 0.00in /  0mm
05:04 57.1 °F /  13.9 °C 50.7 °F /  10.4 °C 30.14in /  1020.5hPa Calm     79% 0.00in /  0mm
05:09 57.1 °F /  13.9 °C 50.3 °F /  10.2 °C 30.15in /  1020.9hPa Calm     78% 0.00in /  0mm
05:14 57.3 °F /  14.1 °C 50.5 °F /  10.3 °C 30.14in /  1020.5hPa Calm   1.0mph /  1.6km/h 78% 0.00in /  0mm
05:19 57.5 °F /  14.2 °C 50.4 °F /  10.2 °C 30.14in /  1020.5hPa Calm   1.0mph /  1.6km/h 77% 0.00in /  0mm
05:24 58.0 °F /  14.4 °C 50.8 °F /  10.4 °C 30.14in /  1020.5hPa Calm   4.0mph /  6.4km/h 77% 0.00in /  0mm
05:29 59.0 °F /  15 °C 50.7 °F /  10.4 °C 30.14in /  1020.5hPa Calm   4.0mph /  6.4km/h 74% 0.00in /  0mm
05:34 60.1 °F /  15.6 °C 51.1 °F /  10.6 °C 30.14in /  1020.5hPa South 2.0mph /  3.2km/h 6.0mph /  9.7km/h 72% 0.00in /  0mm
05:44 61.5 °F /  16.4 °C 51.2 °F /  10.7 °C 30.14in /  1020.5hPa Calm   4.0mph /  6.4km/h 69% 0.00in /  0mm
05:49 61.5 °F /  16.4 °C 51.2 °F /  10.7 °C 30.14in /  1020.5hPa Calm   2.0mph /  3.2km/h 69% 0.00in /  0mm
05:54 61.3 °F /  16.3 °C 50.7 °F /  10.4 °C 30.14in /  1020.5hPa Calm     68% 0.00in /  0mm
05:59 61.1 °F /  16.2 °C 50.5 °F /  10.3 °C 30.14in /  1020.5hPa Calm     68% 0.00in /  0mm
06:04 61.0 °F /  16.1 °C 50.8 °F /  10.4 °C 30.14in /  1020.5hPa Calm     69% 0.00in /  0mm
06:09 60.6 °F /  15.9 °C 50.8 °F /  10.4 °C 30.14in /  1020.5hPa Calm     70% 0.00in /  0mm
06:14 60.4 °F /  15.8 °C 50.6 °F /  10.3 °C 30.14in /  1020.5hPa Calm     70% 0.00in /  0mm
06:19 60.3 °F /  15.7 °C 51.2 °F /  10.7 °C 30.14in /  1020.5hPa Calm   3.0mph /  4.8km/h 72% 0.00in /  0mm
06:24 60.2 °F /  15.7 °C 51.1 °F /  10.6 °C 30.14in /  1020.5hPa Calm   3.0mph /  4.8km/h 72% 0.00in /  0mm
06:29 60.1 °F /  15.6 °C 51.1 °F /  10.6 °C 30.14in /  1020.5hPa Calm   2.0mph /  3.2km/h 72% 0.00in /  0mm
06:34 60.0 °F /  15.6 °C 51.0 °F /  10.6 °C 30.14in /  1020.5hPa Calm   1.0mph /  1.6km/h 72% 0.00in /  0mm
06:39 60.1 °F /  15.6 °C 51.4 °F /  10.8 °C 30.14in /  1020.5hPa Calm   3.0mph /  4.8km/h 73% 0.00in /  0mm
06:44 60.2 °F /  15.7 °C 51.5 °F /  10.8 °C 30.14in /  1020.5hPa Calm   3.0mph /  4.8km/h 73% 0.00in /  0mm
06:50 60.4 °F /  15.8 °C 51.0 °F /  10.6 °C 30.14in /  1020.5hPa Calm   3.0mph /  4.8km/h 71% 0.00in /  0mm
06:59 61.3 °F /  16.3 °C 51.1 °F /  10.6 °C 30.15in /  1020.9hPa Calm   5.0mph /  8km/h 69% 0.00in /  0mm
07:04 62.0 °F /  16.7 °C 50.9 °F /  10.5 °C 30.15in /  1020.9hPa SW 1.0mph /  1.6km/h 6.0mph /  9.7km/h 67% 0.00in /  0mm
07:09 62.9 °F /  17.2 °C 51.0 °F /  10.6 °C 30.15in /  1020.9hPa SW 1.0mph /  1.6km/h 6.0mph /  9.7km/h 65% 0.00in /  0mm
07:14 63.6 °F /  17.6 °C 51.2 °F /  10.7 °C 30.15in /  1020.9hPa Calm   6.0mph /  9.7km/h 64% 0.00in /  0mm
07:19 64.0 °F /  17.8 °C 51.6 °F /  10.9 °C 30.15in /  1020.9hPa SW 1.0mph /  1.6km/h 5.0mph /  8km/h 64% 0.00in /  0mm
07:24 64.4 °F /  18 °C 51.5 °F /  10.8 °C 30.15in /  1020.9hPa Calm   5.0mph /  8km/h 63% 0.00in /  0mm
07:29 64.7 °F /  18.2 °C 51.8 °F /  11 °C 30.15in /  1020.9hPa Calm   5.0mph /  8km/h 63% 0.00in /  0mm
07:34 65.1 °F /  18.4 °C 52.2 °F /  11.2 °C 30.15in /  1020.9hPa Calm   5.0mph /  8km/h 63% 0.00in /  0mm
07:39 65.4 °F /  18.6 °C 51.6 °F /  10.9 °C 30.15in /  1020.9hPa SE 1.0mph /  1.6km/h 5.0mph /  8km/h 61% 0.00in /  0mm
07:44 65.8 °F /  18.8 °C 52.0 °F /  11.1 °C 30.15in /  1020.9hPa South 1.0mph /  1.6km/h 5.0mph /  8km/h 61% 0.00in /  0mm
07:49 66.3 °F /  19.1 °C 51.6 °F /  10.9 °C 30.14in /  1020.5hPa SSW 1.0mph /  1.6km/h 6.0mph /  9.7km/h 59% 0.00in /  0mm
07:54 67.0 °F /  19.4 °C 52.2 °F /  11.2 °C 30.15in /  1020.9hPa SE 1.0mph /  1.6km/h 8.0mph /  12.9km/h 59% 0.00in /  0mm
07:59 67.7 °F /  19.8 °C 52.9 °F /  11.6 °C 30.14in /  1020.5hPa SSW 1.0mph /  1.6km/h 8.0mph /  12.9km/h 59% 0.00in /  0mm
08:04 68.5 °F /  20.3 °C 53.2 °F /  11.8 °C 30.15in /  1020.9hPa Calm   7.0mph /  11.3km/h 58% 0.00in /  0mm
08:09 68.9 °F /  20.5 °C 52.1 °F /  11.2 °C 30.15in /  1020.9hPa Calm   8.0mph /  12.9km/h 55% 0.00in /  0mm
08:14 69.2 °F /  20.7 °C 52.9 °F /  11.6 °C 30.15in /  1020.9hPa Calm   8.0mph /  12.9km/h 56% 0.00in /  0mm
08:19 69.7 °F /  20.9 °C 53.8 °F /  12.1 °C 30.15in /  1020.9hPa SW 1.0mph /  1.6km/h 6.0mph /  9.7km/h 57% 0.00in /  0mm
08:24 69.7 °F /  20.9 °C 53.8 °F /  12.1 °C 30.15in /  1020.9hPa SSW 1.0mph /  1.6km/h 7.0mph /  11.3km/h 57% 0.00in /  0mm
08:29 69.9 °F /  21.1 °C 53.0 °F /  11.7 °C 30.15in /  1020.9hPa SW 2.0mph /  3.2km/h 8.0mph /  12.9km/h 55% 0.00in /  0mm
08:35 70.3 °F /  21.3 °C 52.9 °F /  11.6 °C 30.15in /  1020.9hPa Calm   8.0mph /  12.9km/h 54% 0.00in /  0mm
08:44 71.0 °F /  21.7 °C 53.0 °F /  11.7 °C 30.15in /  1020.9hPa Calm   7.0mph /  11.3km/h 53% 0.00in /  0mm
08:49 71.3 °F /  21.8 °C 54.3 °F /  12.4 °C 30.14in /  1020.5hPa Calm   7.0mph /  11.3km/h 55% 0.00in /  0mm
08:54 71.2 °F /  21.8 °C 53.7 °F /  12.1 °C 30.14in /  1020.5hPa SW 2.0mph /  3.2km/h 7.0mph /  11.3km/h 54% 0.00in /  0mm
08:59 71.3 °F /  21.8 °C 54.3 °F /  12.4 °C 30.14in /  1020.5hPa SW 1.0mph /  1.6km/h 8.0mph /  12.9km/h 55% 0.00in /  0mm
09:04 71.7 °F /  22.1 °C 52.1 °F /  11.2 °C 30.14in /  1020.5hPa SSW 2.0mph /  3.2km/h 9.0mph /  14.5km/h 50% 0.00in /  0mm
09:09 72.0 °F /  22.2 °C 53.4 °F /  11.9 °C 30.14in /  1020.5hPa SW 1.0mph /  1.6km/h 9.0mph /  14.5km/h 52% 0.00in /  0mm
09:14 72.1 °F /  22.3 °C 51.9 °F /  11.1 °C 30.14in /  1020.5hPa SW 2.0mph /  3.2km/h 10.0mph /  16.1km/h 49% 0.00in /  0mm
09:19 72.3 °F /  22.4 °C 52.1 °F /  11.2 °C 30.14in /  1020.5hPa SW 2.0mph /  3.2km/h 10.0mph /  16.1km/h 49% 0.00in /  0mm
09:24 72.4 °F /  22.4 °C 50.5 °F /  10.3 °C 30.14in /  1020.5hPa SSW 3.0mph /  4.8km/h 8.0mph /  12.9km/h 46% 0.00in /  0mm
09:29 72.6 °F /  22.6 °C 48.8 °F /  9.3 °C 30.14in /  1020.5hPa SSW 3.0mph /  4.8km/h 8.0mph /  12.9km/h 43% 0.00in /  0mm
09:35 73.1 °F /  22.8 °C 51.7 °F /  10.9 °C 30.13in /  1020.2hPa Calm   8.0mph /  12.9km/h 47% 0.00in /  0mm
09:44 73.5 °F /  23.1 °C 49.0 °F /  9.4 °C 30.13in /  1020.2hPa SW 1.0mph /  1.6km/h 12.0mph /  19.3km/h 42% 0.00in /  0mm
09:49 73.9 °F /  23.3 °C 48.7 °F /  9.3 °C 30.13in /  1020.2hPa South 3.0mph /  4.8km/h 12.0mph /  19.3km/h 41% 0.00in /  0mm
09:55 73.9 °F /  23.3 °C 43.8 °F /  6.6 °C 30.13in /  1020.2hPa SSE 5.0mph /  8km/h 14.0mph /  22.5km/h 34% 0.00in /  0mm
10:04 74.5 °F /  23.6 °C 46.5 °F /  8.1 °C 30.12in /  1019.9hPa SW 2.0mph /  3.2km/h 10.0mph /  16.1km/h 37% 0.00in /  0mm
10:10 74.8 °F /  23.8 °C 46.1 °F /  7.8 °C 30.12in /  1019.9hPa SW 1.0mph /  1.6km/h 9.0mph /  14.5km/h 36% 0.00in /  0mm
10:19 75.3 °F /  24.1 °C 43.4 °F /  6.3 °C 30.12in /  1019.9hPa SSW 1.0mph /  1.6km/h 8.0mph /  12.9km/h 32% 0.00in /  0mm
10:24 75.3 °F /  24.1 °C 45.8 °F /  7.7 °C 30.12in /  1019.9hPa SW 5.0mph /  8km/h 10.0mph /  16.1km/h 35% 0.00in /  0mm
10:29 75.6 °F /  24.2 °C 44.5 °F /  6.9 °C 30.12in /  1019.9hPa SW 1.0mph /  1.6km/h 10.0mph /  16.1km/h 33% 0.00in /  0mm
10:34 75.9 °F /  24.4 °C 44.0 °F /  6.7 °C 30.12in /  1019.9hPa SSW 1.0mph /  1.6km/h 10.0mph /  16.1km/h 32% 0.00in /  0mm
10:39 76.2 °F /  24.6 °C 42.5 °F /  5.8 °C 30.11in /  1019.5hPa SSW 2.0mph /  3.2km/h 11.0mph /  17.7km/h 30% 0.00in /  0mm
10:45 76.2 °F /  24.6 °C 41.7 °F /  5.4 °C 30.11in /  1019.5hPa Calm   11.0mph /  17.7km/h 29% 0.00in /  0mm
10:54 76.7 °F /  24.8 °C 43.8 °F /  6.6 °C 30.11in /  1019.5hPa SW 1.0mph /  1.6km/h 11.0mph /  17.7km/h 31% 0.00in /  0mm
10:59 76.9 °F /  24.9 °C 43.1 °F /  6.2 °C 30.11in /  1019.5hPa SSW 3.0mph /  4.8km/h 11.0mph /  17.7km/h 30% 0.00in /  0mm
11:04 76.7 °F /  24.8 °C 43.8 °F /  6.6 °C 30.11in /  1019.5hPa South 2.0mph /  3.2km/h 15.0mph /  24.1km/h 31% 0.00in /  0mm
11:09 76.8 °F /  24.9 °C 40.3 °F /  4.6 °C 30.11in /  1019.5hPa South 2.0mph /  3.2km/h 15.0mph /  24.1km/h 27% 0.00in /  0mm
11:14 77.1 °F /  25.1 °C 41.5 °F /  5.3 °C 30.11in /  1019.5hPa South 2.0mph /  3.2km/h 11.0mph /  17.7km/h 28% 0.00in /  0mm
11:19 77.5 °F /  25.3 °C 42.8 °F /  6 °C 30.11in /  1019.5hPa Calm   11.0mph /  17.7km/h 29% 0.00in /  0mm
11:24 77.9 °F /  25.5 °C 40.3 °F /  4.6 °C 30.10in /  1019.2hPa SW 3.0mph /  4.8km/h 11.0mph /  17.7km/h 26% 0.00in /  0mm
11:35 78.2 °F /  25.7 °C 41.5 °F /  5.3 °C 30.10in /  1019.2hPa SSW 3.0mph /  4.8km/h 13.0mph /  20.9km/h 27% 0.00in /  0mm
11:44 78.5 °F /  25.8 °C 38.7 °F /  3.7 °C 30.10in /  1019.2hPa South 6.0mph /  9.7km/h 14.0mph /  22.5km/h 24% 0.00in /  0mm
11:49 78.4 °F /  25.8 °C 41.7 °F /  5.4 °C 30.10in /  1019.2hPa SSW 4.0mph /  6.4km/h 14.0mph /  22.5km/h 27% 0.00in /  0mm
11:54 78.3 °F /  25.7 °C 41.6 °F /  5.3 °C 30.10in /  1019.2hPa SSW 3.0mph /  4.8km/h 12.0mph /  19.3km/h 27% 0.00in /  0mm
11:59 78.3 °F /  25.7 °C 42.5 °F /  5.8 °C 30.10in /  1019.2hPa South 5.0mph /  8km/h 12.0mph /  19.3km/h 28% 0.00in /  0mm
12:04 78.5 °F /  25.8 °C 37.7 °F /  3.2 °C 30.10in /  1019.2hPa South 2.0mph /  3.2km/h 10.0mph /  16.1km/h 23% 0.00in /  0mm
12:09 78.3 °F /  25.7 °C 45.2 °F /  7.3 °C 30.10in /  1019.2hPa SSW 4.0mph /  6.4km/h 15.0mph /  24.1km/h 31% 0.00in /  0mm
12:14 78.4 °F /  25.8 °C 42.6 °F /  5.9 °C 30.10in /  1019.2hPa South 4.0mph /  6.4km/h 15.0mph /  24.1km/h 28% 0.00in /  0mm
12:19 78.5 °F /  25.8 °C 41.8 °F /  5.4 °C 30.09in /  1018.8hPa SSW 1.0mph /  1.6km/h 10.0mph /  16.1km/h 27% 0.00in /  0mm
12:24 79.0 °F /  26.1 °C 43.1 °F /  6.2 °C 30.09in /  1018.8hPa South 2.0mph /  3.2km/h 10.0mph /  16.1km/h 28% 0.00in /  0mm
12:29 79.3 °F /  26.3 °C 42.5 °F /  5.8 °C 30.09in /  1018.8hPa SSW 4.0mph /  6.4km/h 15.0mph /  24.1km/h 27% 0.00in /  0mm
12:34 79.6 °F /  26.4 °C 49.6 °F /  9.8 °C 30.09in /  1018.8hPa SW 1.0mph /  1.6km/h 15.0mph /  24.1km/h 35% 0.00in /  0mm
12:39 79.8 °F /  26.6 °C 48.2 °F /  9 °C 30.09in /  1018.8hPa South 3.0mph /  4.8km/h 10.0mph /  16.1km/h 33% 0.00in /  0mm
12:44 79.7 °F /  26.5 °C 45.6 °F /  7.6 °C 30.08in /  1018.5hPa SSE 3.0mph /  4.8km/h 12.0mph /  19.3km/h 30% 0.00in /  0mm
12:50 79.8 °F /  26.6 °C 44.8 °F /  7.1 °C 30.08in /  1018.5hPa SSW 5.0mph /  8km/h 12.0mph /  19.3km/h 29% 0.00in /  0mm
12:59 79.6 °F /  26.4 °C 46.3 °F /  7.9 °C 30.08in /  1018.5hPa SW 5.0mph /  8km/h 15.0mph /  24.1km/h 31% 0.00in /  0mm
13:04 78.9 °F /  26.1 °C 47.4 °F /  8.6 °C 30.07in /  1018.2hPa SSW 5.0mph /  8km/h 15.0mph /  24.1km/h 33% 0.00in /  0mm
13:09 78.7 °F /  25.9 °C 43.8 °F /  6.6 °C 30.08in /  1018.5hPa SSE 4.0mph /  6.4km/h 15.0mph /  24.1km/h 29% 0.00in /  0mm
13:14 78.9 °F /  26.1 °C 49.0 °F /  9.4 °C 30.07in /  1018.2hPa SW 1.0mph /  1.6km/h 14.0mph /  22.5km/h 35% 0.00in /  0mm
13:19 79.4 °F /  26.3 °C 48.6 °F /  9.2 °C 30.07in /  1018.2hPa SSE 3.0mph /  4.8km/h 8.0mph /  12.9km/h 34% 0.00in /  0mm
13:24 79.3 °F /  26.3 °C 46.1 °F /  7.8 °C 30.07in /  1018.2hPa South 3.0mph /  4.8km/h 10.0mph /  16.1km/h 31% 0.00in /  0mm
13:30 79.2 °F /  26.2 °C 44.2 °F /  6.8 °C 30.07in /  1018.2hPa SSE 6.0mph /  9.7km/h 13.0mph /  20.9km/h 29% 0.00in /  0mm
13:35 79.1 °F /  26.2 °C 47.6 °F /  8.7 °C 30.06in /  1017.8hPa SSE 3.0mph /  4.8km/h 13.0mph /  20.9km/h 33% 0.00in /  0mm
13:40 78.9 °F /  26.1 °C 49.7 °F /  9.8 °C 30.06in /  1017.8hPa SSW 4.0mph /  6.4km/h 11.0mph /  17.7km/h 36% 0.00in /  0mm
13:45 79.0 °F /  26.1 °C 47.5 °F /  8.6 °C 30.06in /  1017.8hPa SSW 3.0mph /  4.8km/h 11.0mph /  17.7km/h 33% 0.00in /  0mm
13:54 79.2 °F /  26.2 °C 45.1 °F /  7.3 °C 30.06in /  1017.8hPa SSE 4.0mph /  6.4km/h 12.0mph /  19.3km/h 30% 0.00in /  0mm
13:59 78.7 °F /  25.9 °C 44.7 °F /  7.1 °C 30.06in /  1017.8hPa SSE 6.0mph /  9.7km/h 12.0mph /  19.3km/h 30% 0.00in /  0mm
14:04 78.4 °F /  25.8 °C 46.1 °F /  7.8 °C 30.05in /  1017.5hPa SE 3.0mph /  4.8km/h 11.0mph /  17.7km/h 32% 0.00in /  0mm
14:09 78.7 °F /  25.9 °C 44.7 °F /  7.1 °C 30.05in /  1017.5hPa SE 2.0mph /  3.2km/h 11.0mph /  17.7km/h 30% 0.00in /  0mm
14:14 79.0 °F /  26.1 °C 45.8 °F /  7.7 °C 30.05in /  1017.5hPa SSE 5.0mph /  8km/h 12.0mph /  19.3km/h 31% 0.00in /  0mm
14:19 79.0 °F /  26.1 °C 46.7 °F /  8.2 °C 30.05in /  1017.5hPa SSW 2.0mph /  3.2km/h 12.0mph /  19.3km/h 32% 0.00in /  0mm
14:24 78.7 °F /  25.9 °C 47.2 °F /  8.4 °C 30.05in /  1017.5hPa South 2.0mph /  3.2km/h 16.0mph /  25.7km/h 33% 0.00in /  0mm
14:29 78.4 °F /  25.8 °C 48.5 °F /  9.2 °C 30.04in /  1017.2hPa SSW 1.0mph /  1.6km/h 16.0mph /  25.7km/h 35% 0.00in /  0mm
14:34 78.2 °F /  25.7 °C 50.5 °F /  10.3 °C 30.04in /  1017.2hPa SSE 1.0mph /  1.6km/h 8.0mph /  12.9km/h 38% 0.00in /  0mm
14:40 78.4 °F /  25.8 °C 47.0 °F /  8.3 °C 30.04in /  1017.2hPa SSW 1.0mph /  1.6km/h 8.0mph /  12.9km/h 33% 0.00in /  0mm
14:49 78.6 °F /  25.9 °C 51.6 °F /  10.9 °C 30.04in /  1017.2hPa Calm   9.0mph /  14.5km/h 39% 0.00in /  0mm
14:54 78.7 °F /  25.9 °C 50.3 °F /  10.2 °C 30.04in /  1017.2hPa SW 1.0mph /  1.6km/h 7.0mph /  11.3km/h 37% 0.00in /  0mm
14:59 79.0 °F /  26.1 °C 53.3 °F /  11.8 °C 30.03in /  1016.8hPa West 1.0mph /  1.6km/h 6.0mph /  9.7km/h 41% 0.00in /  0mm
15:04 79.0 °F /  26.1 °C 52.6 °F /  11.4 °C 30.03in /  1016.8hPa WSW 1.0mph /  1.6km/h 6.0mph /  9.7km/h 40% 0.00in /  0mm
15:09 78.9 °F /  26.1 °C 53.9 °F /  12.2 °C 30.03in /  1016.8hPa Calm   6.0mph /  9.7km/h 42% 0.00in /  0mm
15:14 79.1 °F /  26.2 °C 52.1 °F /  11.2 °C 30.03in /  1016.8hPa Calm   6.0mph /  9.7km/h 39% 0.00in /  0mm
15:19 79.3 °F /  26.3 °C 55.5 °F /  13.1 °C 30.02in /  1016.5hPa Calm   3.0mph /  4.8km/h 44% 0.00in /  0mm
15:25 79.3 °F /  26.3 °C 51.5 °F /  10.8 °C 30.02in /  1016.5hPa Calm   7.0mph /  11.3km/h 38% 0.00in /  0mm
15:35 78.7 °F /  25.9 °C 53.7 °F /  12.1 °C 30.02in /  1016.5hPa West 3.0mph /  4.8km/h 7.0mph /  11.3km/h 42% 0.00in /  0mm
15:44 78.6 °F /  25.9 °C 55.5 °F /  13.1 °C 30.02in /  1016.5hPa WSW 2.0mph /  3.2km/h 7.0mph /  11.3km/h 45% 0.00in /  0mm
15:49 78.2 °F /  25.7 °C 55.1 °F /  12.8 °C 30.02in /  1016.5hPa Calm   7.0mph /  11.3km/h 45% 0.00in /  0mm
15:54 78.0 °F /  25.6 °C 54.4 °F /  12.4 °C 30.01in /  1016.1hPa Calm   5.0mph /  8km/h 44% 0.00in /  0mm
15:59 77.8 °F /  25.4 °C 53.5 °F /  11.9 °C 30.02in /  1016.5hPa West 1.0mph /  1.6km/h 5.0mph /  8km/h 43% 0.00in /  0mm
16:05 77.5 °F /  25.3 °C 53.9 °F /  12.2 °C 30.01in /  1016.1hPa Calm   5.0mph /  8km/h 44% 0.00in /  0mm
16:14 78.0 °F /  25.6 °C 56.2 °F /  13.4 °C 30.01in /  1016.1hPa West 1.0mph /  1.6km/h 5.0mph /  8km/h 47% 0.00in /  0mm
16:19 77.9 °F /  25.5 °C 56.1 °F /  13.4 °C 30.01in /  1016.1hPa Calm   7.0mph /  11.3km/h 47% 0.00in /  0mm
16:24 77.9 °F /  25.5 °C 54.3 °F /  12.4 °C 30.01in /  1016.1hPa Calm   7.0mph /  11.3km/h 44% 0.00in /  0mm
16:29 78.2 °F /  25.7 °C 55.8 °F /  13.2 °C 30.01in /  1016.1hPa West 1.0mph /  1.6km/h 6.0mph /  9.7km/h 46% 0.00in /  0mm
16:34 78.0 °F /  25.6 °C 56.7 °F /  13.7 °C 30.01in /  1016.1hPa SW 2.0mph /  3.2km/h 7.0mph /  11.3km/h 48% 0.00in /  0mm
16:39 77.4 °F /  25.2 °C 55.6 °F /  13.1 °C 30.01in /  1016.1hPa West 2.0mph /  3.2km/h 7.0mph /  11.3km/h 47% 0.00in /  0mm
16:44 77.3 °F /  25.2 °C 54.3 °F /  12.4 °C 30.01in /  1016.1hPa SW 6.0mph /  9.7km/h 14.0mph /  22.5km/h 45% 0.00in /  0mm
16:55 76.0 °F /  24.4 °C 55.5 °F /  13.1 °C 30.00in /  1015.8hPa SW 2.0mph /  3.2km/h 11.0mph /  17.7km/h 49% 0.00in /  0mm
16:59 76.1 °F /  24.5 °C 55.6 °F /  13.1 °C 30.01in /  1016.1hPa SW 2.0mph /  3.2km/h 13.0mph /  20.9km/h 49% 0.00in /  0mm
17:05 77.0 °F /  25 °C 55.3 °F /  12.9 °C 30.01in /  1016.1hPa SW 5.0mph /  8km/h 13.0mph /  20.9km/h 47% 0.00in /  0mm
17:09 77.0 °F /  25 °C 56.4 °F /  13.6 °C 30.00in /  1015.8hPa Calm   11.0mph /  17.7km/h 49% 0.00in /  0mm
17:15 76.8 °F /  24.9 °C 55.7 °F /  13.2 °C 30.00in /  1015.8hPa WSW 1.0mph /  1.6km/h 7.0mph /  11.3km/h 48% 0.00in /  0mm
17:19 76.2 °F /  24.6 °C 56.2 °F /  13.4 °C 30.00in /  1015.8hPa WSW 4.0mph /  6.4km/h 7.0mph /  11.3km/h 50% 0.00in /  0mm
17:24 75.7 °F /  24.3 °C 55.8 °F /  13.2 °C 30.00in /  1015.8hPa WSW 4.0mph /  6.4km/h 7.0mph /  11.3km/h 50% 0.00in /  0mm
17:30 75.3 °F /  24.1 °C 55.9 °F /  13.3 °C 30.00in /  1015.8hPa South 1.0mph /  1.6km/h 7.0mph /  11.3km/h 51% 0.00in /  0mm
17:40 75.0 °F /  23.9 °C 55.7 °F /  13.2 °C 30.00in /  1015.8hPa SW 3.0mph /  4.8km/h 9.0mph /  14.5km/h 51% 0.00in /  0mm
17:50 74.5 °F /  23.6 °C 56.8 °F /  13.8 °C 30.00in /  1015.8hPa SSW 4.0mph /  6.4km/h 10.0mph /  16.1km/h 54% 0.00in /  0mm
17:54 74.4 °F /  23.6 °C 56.7 °F /  13.7 °C 30.00in /  1015.8hPa SW 3.0mph /  4.8km/h 10.0mph /  16.1km/h 54% 0.00in /  0mm
17:59 74.6 °F /  23.7 °C 57.4 °F /  14.1 °C 30.00in /  1015.8hPa WSW 1.0mph /  1.6km/h 7.0mph /  11.3km/h 55% 0.00in /  0mm
18:04 74.6 °F /  23.7 °C 57.4 °F /  14.1 °C 30.00in /  1015.8hPa SSW 4.0mph /  6.4km/h 11.0mph /  17.7km/h 55% 0.00in /  0mm
18:09 74.6 °F /  23.7 °C 58.4 °F /  14.7 °C 30.00in /  1015.8hPa SSW 1.0mph /  1.6km/h 11.0mph /  17.7km/h 57% 0.00in /  0mm
18:14 74.2 °F /  23.4 °C 58.5 °F /  14.7 °C 30.00in /  1015.8hPa SW 3.0mph /  4.8km/h 7.0mph /  11.3km/h 58% 0.00in /  0mm
18:19 73.9 °F /  23.3 °C 58.2 °F /  14.6 °C 30.00in /  1015.8hPa SW 3.0mph /  4.8km/h 8.0mph /  12.9km/h 58% 0.00in /  0mm
18:24 74.0 °F /  23.3 °C 59.3 °F /  15.2 °C 30.00in /  1015.8hPa SSW 2.0mph /  3.2km/h 8.0mph /  12.9km/h 60% 0.00in /  0mm
18:29 74.4 °F /  23.6 °C 59.2 °F /  15.1 °C 30.00in /  1015.8hPa SW 2.0mph /  3.2km/h 6.0mph /  9.7km/h 59% 0.00in /  0mm
18:34 74.3 °F /  23.5 °C 58.6 °F /  14.8 °C 30.00in /  1015.8hPa SSW 4.0mph /  6.4km/h 9.0mph /  14.5km/h 58% 0.00in /  0mm
18:39 74.1 °F /  23.4 °C 59.3 °F /  15.2 °C 30.00in /  1015.8hPa SW 3.0mph /  4.8km/h 10.0mph /  16.1km/h 60% 0.00in /  0mm
18:44 74.0 °F /  23.3 °C 59.3 °F /  15.2 °C 29.99in /  1015.5hPa South 4.0mph /  6.4km/h 11.0mph /  17.7km/h 60% 0.00in /  0mm
18:49 73.7 °F /  23.2 °C 58.5 °F /  14.7 °C 29.99in /  1015.5hPa SSW 4.0mph /  6.4km/h 11.0mph /  17.7km/h 59% 0.00in /  0mm
18:54 73.3 °F /  22.9 °C 58.6 °F /  14.8 °C 29.99in /  1015.5hPa SW 5.0mph /  8km/h 9.0mph /  14.5km/h 60% 0.00in /  0mm
18:59 72.8 °F /  22.7 °C 59.0 °F /  15 °C 29.99in /  1015.5hPa SSW 3.0mph /  4.8km/h 9.0mph /  14.5km/h 62% 0.00in /  0mm
19:04 72.5 °F /  22.5 °C 59.2 °F /  15.1 °C 29.99in /  1015.5hPa SW 1.0mph /  1.6km/h 7.0mph /  11.3km/h 63% 0.00in /  0mm
19:09 71.9 °F /  22.2 °C 58.6 °F /  14.8 °C 29.99in /  1015.5hPa SSW 4.0mph /  6.4km/h 9.0mph /  14.5km/h 63% 0.00in /  0mm
19:14 71.5 °F /  21.9 °C 58.7 °F /  14.8 °C 29.99in /  1015.5hPa SW 1.0mph /  1.6km/h 9.0mph /  14.5km/h 64% 0.00in /  0mm
19:19 71.1 °F /  21.7 °C 59.2 °F /  15.1 °C 29.98in /  1015.1hPa SW 4.0mph /  6.4km/h 9.0mph /  14.5km/h 66% 0.00in /  0mm
19:25 70.4 °F /  21.3 °C 59.8 °F /  15.4 °C 29.99in /  1015.5hPa SW 4.0mph /  6.4km/h 9.0mph /  14.5km/h 69% 0.00in /  0mm
19:34 69.7 °F /  20.9 °C 59.9 °F /  15.5 °C 29.98in /  1015.1hPa SW 1.0mph /  1.6km/h 7.0mph /  11.3km/h 71% 0.00in /  0mm
19:39 69.4 °F /  20.8 °C 59.6 °F /  15.3 °C 29.98in /  1015.1hPa Calm   6.0mph /  9.7km/h 71% 0.00in /  0mm
19:44 69.1 °F /  20.6 °C 59.7 °F /  15.4 °C 29.98in /  1015.1hPa Calm   6.0mph /  9.7km/h 72% 0.00in /  0mm
19:49 68.7 °F /  20.4 °C 59.3 °F /  15.2 °C 29.98in /  1015.1hPa SSW 1.0mph /  1.6km/h 5.0mph /  8km/h 72% 0.00in /  0mm
19:55 68.5 °F /  20.3 °C 59.1 °F /  15.1 °C 29.98in /  1015.1hPa Calm   5.0mph /  8km/h 72% 0.00in /  0mm
20:04 68.1 °F /  20.1 °C 59.1 °F /  15.1 °C 29.97in /  1014.8hPa SSW 1.0mph /  1.6km/h 7.0mph /  11.3km/h 73% 0.00in /  0mm
20:09 67.9 °F /  19.9 °C 58.9 °F /  14.9 °C 29.97in /  1014.8hPa SW 1.0mph /  1.6km/h 6.0mph /  9.7km/h 73% 0.00in /  0mm
20:14 67.8 °F /  19.9 °C 59.2 °F /  15.1 °C 29.97in /  1014.8hPa Calm   6.0mph /  9.7km/h 74% 0.00in /  0mm
20:19 67.7 °F /  19.8 °C 59.1 °F /  15.1 °C 29.97in /  1014.8hPa Calm   5.0mph /  8km/h 74% 0.00in /  0mm
20:24 67.5 °F /  19.7 °C 58.9 °F /  14.9 °C 29.97in /  1014.8hPa Calm   5.0mph /  8km/h 74% 0.00in /  0mm
20:29 67.3 °F /  19.6 °C 59.1 °F /  15.1 °C 29.97in /  1014.8hPa Calm   5.0mph /  8km/h 75% 0.00in /  0mm
20:34 67.1 °F /  19.5 °C 59.3 °F /  15.2 °C 29.97in /  1014.8hPa Calm     76% 0.00in /  0mm
20:39 66.7 °F /  19.3 °C 59.3 °F /  15.2 °C 29.97in /  1014.8hPa Calm     77% 0.00in /  0mm
20:45 66.3 °F /  19.1 °C 58.9 °F /  14.9 °C 29.98in /  1015.1hPa Calm     77% 0.00in /  0mm
20:54 65.5 °F /  18.6 °C 58.8 °F /  14.9 °C 29.98in /  1015.1hPa Calm     79% 0.00in /  0mm
20:59 65.2 °F /  18.4 °C 58.9 °F /  14.9 °C 29.98in /  1015.1hPa Calm   1.0mph /  1.6km/h 80% 0.00in /  0mm
21:04 65.1 °F /  18.4 °C 58.8 °F /  14.9 °C 29.98in /  1015.1hPa Calm   1.0mph /  1.6km/h 80% 0.00in /  0mm
21:09 65.0 °F /  18.3 °C 59.0 °F /  15 °C 29.98in /  1015.1hPa Calm   1.0mph /  1.6km/h 81% 0.00in /  0mm
21:14 65.0 °F /  18.3 °C 58.7 °F /  14.8 °C 29.98in /  1015.1hPa Calm   1.0mph /  1.6km/h 80% 0.00in /  0mm
21:19 65.0 °F /  18.3 °C 58.7 °F /  14.8 °C 29.98in /  1015.1hPa Calm     80% 0.00in /  0mm
21:24 65.0 °F /  18.3 °C 58.7 °F /  14.8 °C 29.97in /  1014.8hPa Calm   2.0mph /  3.2km/h 80% 0.00in /  0mm
21:29 65.3 °F /  18.5 °C 59.0 °F /  15 °C 29.98in /  1015.1hPa Calm   5.0mph /  8km/h 80% 0.00in /  0mm
21:34 65.5 °F /  18.6 °C 58.8 °F /  14.9 °C 29.97in /  1014.8hPa Calm   5.0mph /  8km/h 79% 0.00in /  0mm
21:45 65.7 °F /  18.7 °C 59.0 °F /  15 °C 29.97in /  1014.8hPa Calm   2.0mph /  3.2km/h 79% 0.00in /  0mm
21:54 65.5 °F /  18.6 °C 58.8 °F /  14.9 °C 29.97in /  1014.8hPa Calm   3.0mph /  4.8km/h 79% 0.00in /  0mm
21:59 65.3 °F /  18.5 °C 58.6 °F /  14.8 °C 29.97in /  1014.8hPa Calm   3.0mph /  4.8km/h 79% 0.00in /  0mm
22:04 65.2 °F /  18.4 °C 58.9 °F /  14.9 °C 29.97in /  1014.8hPa Calm   2.0mph /  3.2km/h 80% 0.00in /  0mm
22:09 65.3 °F /  18.5 °C 59.0 °F /  15 °C 29.97in /  1014.8hPa Calm   1.0mph /  1.6km/h 80% 0.00in /  0mm
22:14 65.2 °F /  18.4 °C 58.9 °F /  14.9 °C 29.97in /  1014.8hPa Calm   1.0mph /  1.6km/h 80% 0.00in /  0mm
22:19 65.0 °F /  18.3 °C 58.7 °F /  14.8 °C 29.97in /  1014.8hPa Calm   1.0mph /  1.6km/h 80% 0.00in /  0mm
22:24 64.8 °F /  18.2 °C 58.8 °F /  14.9 °C 29.97in /  1014.8hPa Calm   1.0mph /  1.6km/h 81% 0.00in /  0mm
22:29 64.8 °F /  18.2 °C 58.8 °F /  14.9 °C 29.97in /  1014.8hPa Calm   1.0mph /  1.6km/h 81% 0.00in /  0mm
22:34 64.7 °F /  18.2 °C 58.7 °F /  14.8 °C 29.97in /  1014.8hPa Calm     81% 0.00in /  0mm
22:39 64.6 °F /  18.1 °C 58.6 °F /  14.8 °C 29.97in /  1014.8hPa Calm     81% 0.00in /  0mm
22:44 64.5 °F /  18.1 °C 58.9 °F /  14.9 °C 29.97in /  1014.8hPa Calm   1.0mph /  1.6km/h 82% 0.00in /  0mm
22:49 64.5 °F /  18.1 °C 58.9 °F /  14.9 °C 29.97in /  1014.8hPa Calm   1.0mph /  1.6km/h 82% 0.00in /  0mm
22:54 64.4 °F /  18 °C 58.8 °F /  14.9 °C 29.96in /  1014.4hPa Calm     82% 0.00in /  0mm
23:00 64.2 °F /  17.9 °C 58.6 °F /  14.8 °C 29.96in /  1014.4hPa Calm     82% 0.00in /  0mm
23:09 64.1 °F /  17.8 °C 58.5 °F /  14.7 °C 29.96in /  1014.4hPa Calm   1.0mph /  1.6km/h 82% 0.00in /  0mm
23:14 64.3 °F /  17.9 °C 58.7 °F /  14.8 °C 29.96in /  1014.4hPa Calm   5.0mph /  8km/h 82% 0.00in /  0mm
23:19 64.4 °F /  18 °C 58.8 °F /  14.9 °C 29.96in /  1014.4hPa Calm   5.0mph /  8km/h 82% 0.00in /  0mm
23:24 64.4 °F /  18 °C 59.1 °F /  15.1 °C 29.96in /  1014.4hPa Calm   1.0mph /  1.6km/h 83% 0.00in /  0mm
23:30 64.2 °F /  17.9 °C 58.9 °F /  14.9 °C 29.96in /  1014.4hPa Calm   1.0mph /  1.6km/h 83% 0.00in /  0mm
23:40 63.6 °F /  17.6 °C 58.7 °F /  14.8 °C 29.95in /  1014.1hPa Calm     84% 0.00in /  0mm
23:49 63.2 °F /  17.3 °C 58.3 °F /  14.6 °C 29.95in /  1014.1hPa Calm     84% 0.00in /  0mm
23:54 63.2 °F /  17.3 °C 58.3 °F /  14.6 °C 29.95in /  1014.1hPa Calm   1.0mph /  1.6km/h 84% 0.00in /  0mm
23:59 63.3 °F /  17.4 °C 58.4 °F /  14.7 °C 29.95in /  1014.1hPa Calm   1.0mph /  1.6km/h 84% 0.00in /  0mm
Westford Weather
Compliments of Weather Underground

 
 
Current Radar Loop:

Copyright © WestfordWeather.net 2007-2014. All rights reserved.